sensor_id;sensor_type;location;lat;lon;timestamp;P1;durP1;ratioP1;P2;durP2;ratioP2
24619;SDS011;12763;55.802;37.404;2023-06-14T00:00:43;16.02;;;5.40;;
24619;SDS011;12763;55.802;37.404;2023-06-14T00:03:09;13.83;;;4.93;;
24619;SDS011;12763;55.802;37.404;2023-06-14T00:05:37;14.35;;;5.40;;
24619;SDS011;12763;55.802;37.404;2023-06-14T00:08:08;23.08;;;6.00;;
24619;SDS011;12763;55.802;37.404;2023-06-14T00:10:35;12.93;;;5.63;;
24619;SDS011;12763;55.802;37.404;2023-06-14T00:13:02;12.43;;;4.80;;
24619;SDS011;12763;55.802;37.404;2023-06-14T00:15:33;10.98;;;5.32;;
24619;SDS011;12763;55.802;37.404;2023-06-14T00:17:59;11.63;;;5.00;;
24619;SDS011;12763;55.802;37.404;2023-06-14T00:20:30;12.38;;;5.88;;
24619;SDS011;12763;55.802;37.404;2023-06-14T00:22:58;12.85;;;5.25;;
24619;SDS011;12763;55.802;37.404;2023-06-14T00:25:25;9.93;;;6.45;;
24619;SDS011;12763;55.802;37.404;2023-06-14T00:27:55;13.23;;;5.68;;
24619;SDS011;12763;55.802;37.404;2023-06-14T00:30:22;12.20;;;5.25;;
24619;SDS011;12763;55.802;37.404;2023-06-14T00:32:48;10.65;;;5.38;;
24619;SDS011;12763;55.802;37.404;2023-06-14T00:35:17;13.82;;;4.95;;
24619;SDS011;12763;55.802;37.404;2023-06-14T00:37:43;20.02;;;5.38;;
24619;SDS011;12763;55.802;37.404;2023-06-14T00:40:09;16.20;;;5.88;;
24619;SDS011;12763;55.802;37.404;2023-06-14T00:42:37;13.00;;;5.25;;
24619;SDS011;12763;55.802;37.404;2023-06-14T00:45:03;9.52;;;5.10;;
24619;SDS011;12763;55.802;37.404;2023-06-14T00:47:32;11.20;;;5.25;;
24619;SDS011;12763;55.802;37.404;2023-06-14T00:49:58;16.75;;;6.13;;
24619;SDS011;12763;55.802;37.404;2023-06-14T00:52:25;10.23;;;5.20;;
24619;SDS011;12763;55.802;37.404;2023-06-14T00:54:52;8.93;;;4.97;;
24619;SDS011;12763;55.802;37.404;2023-06-14T00:57:18;14.50;;;5.60;;
24619;SDS011;12763;55.802;37.404;2023-06-14T00:59:47;14.10;;;5.35;;
24619;SDS011;12763;55.802;37.404;2023-06-14T01:02:15;10.90;;;5.68;;
24619;SDS011;12763;55.802;37.404;2023-06-14T01:04:43;12.95;;;5.40;;
24619;SDS011;12763;55.802;37.404;2023-06-14T01:10:29;13.50;;;6.05;;
24619;SDS011;12763;55.802;37.404;2023-06-14T01:13:15;11.18;;;5.25;;
24619;SDS011;12763;55.802;37.404;2023-06-14T01:15:47;12.75;;;5.40;;
24619;SDS011;12763;55.802;37.404;2023-06-14T01:18:13;14.57;;;5.78;;
24619;SDS011;12763;55.802;37.404;2023-06-14T01:20:43;9.75;;;5.15;;
24619;SDS011;12763;55.802;37.404;2023-06-14T01:23:12;19.02;;;5.95;;
24619;SDS011;12763;55.802;37.404;2023-06-14T01:25:38;13.68;;;5.57;;
24619;SDS011;12763;55.802;37.404;2023-06-14T01:28:05;9.40;;;4.85;;
24619;SDS011;12763;55.802;37.404;2023-06-14T01:30:39;16.67;;;6.00;;
24619;SDS011;12763;55.802;37.404;2023-06-14T01:33:12;11.57;;;5.97;;
24619;SDS011;12763;55.802;37.404;2023-06-14T01:35:44;13.30;;;5.80;;
24619;SDS011;12763;55.802;37.404;2023-06-14T01:38:20;16.92;;;6.20;;
24619;SDS011;12763;55.802;37.404;2023-06-14T01:40:49;13.07;;;5.82;;
24619;SDS011;12763;55.802;37.404;2023-06-14T01:43:16;16.63;;;6.22;;
24619;SDS011;12763;55.802;37.404;2023-06-14T01:45:44;18.40;;;6.00;;
24619;SDS011;12763;55.802;37.404;2023-06-14T01:48:12;16.80;;;6.50;;
24619;SDS011;12763;55.802;37.404;2023-06-14T01:50:39;15.48;;;5.78;;
24619;SDS011;12763;55.802;37.404;2023-06-14T01:53:09;12.90;;;5.60;;
24619;SDS011;12763;55.802;37.404;2023-06-14T01:55:37;15.32;;;6.95;;
24619;SDS011;12763;55.802;37.404;2023-06-14T01:58:06;15.90;;;6.03;;
24619;SDS011;12763;55.802;37.404;2023-06-14T02:00:32;14.73;;;6.30;;
24619;SDS011;12763;55.802;37.404;2023-06-14T02:02:59;10.00;;;6.22;;
24619;SDS011;12763;55.802;37.404;2023-06-14T02:05:26;11.38;;;5.85;;
24619;SDS011;12763;55.802;37.404;2023-06-14T02:07:54;15.52;;;7.43;;
24619;SDS011;12763;55.802;37.404;2023-06-14T02:10:20;11.18;;;5.75;;
24619;SDS011;12763;55.802;37.404;2023-06-14T02:12:48;21.58;;;7.40;;
24619;SDS011;12763;55.802;37.404;2023-06-14T02:15:16;16.13;;;6.38;;
24619;SDS011;12763;55.802;37.404;2023-06-14T02:17:44;18.40;;;6.57;;
24619;SDS011;12763;55.802;37.404;2023-06-14T02:20:13;13.95;;;5.85;;
24619;SDS011;12763;55.802;37.404;2023-06-14T02:22:39;13.82;;;7.28;;
24619;SDS011;12763;55.802;37.404;2023-06-14T02:25:07;18.75;;;6.90;;
24619;SDS011;12763;55.802;37.404;2023-06-14T02:27:33;16.33;;;6.47;;
24619;SDS011;12763;55.802;37.404;2023-06-14T02:30:03;20.35;;;7.00;;
24619;SDS011;12763;55.802;37.404;2023-06-14T02:32:33;18.48;;;7.32;;
24619;SDS011;12763;55.802;37.404;2023-06-14T02:35:02;19.77;;;7.70;;
24619;SDS011;12763;55.802;37.404;2023-06-14T02:37:32;19.90;;;9.00;;
24619;SDS011;12763;55.802;37.404;2023-06-14T02:39:58;17.27;;;7.05;;
24619;SDS011;12763;55.802;37.404;2023-06-14T02:42:25;16.73;;;7.55;;
24619;SDS011;12763;55.802;37.404;2023-06-14T02:44:51;20.33;;;7.10;;
24619;SDS011;12763;55.802;37.404;2023-06-14T02:47:18;16.50;;;7.57;;
24619;SDS011;12763;55.802;37.404;2023-06-14T02:49:45;17.40;;;7.30;;
24619;SDS011;12763;55.802;37.404;2023-06-14T02:52:15;19.67;;;7.22;;
24619;SDS011;12763;55.802;37.404;2023-06-14T02:54:41;25.38;;;7.72;;
24619;SDS011;12763;55.802;37.404;2023-06-14T02:57:08;21.30;;;8.43;;
24619;SDS011;12763;55.802;37.404;2023-06-14T02:59:36;22.33;;;7.57;;
24619;SDS011;12763;55.802;37.404;2023-06-14T03:02:06;16.88;;;6.85;;
24619;SDS011;12763;55.802;37.404;2023-06-14T03:04:33;24.70;;;8.57;;
24619;SDS011;12763;55.802;37.404;2023-06-14T03:07:04;17.40;;;7.18;;
24619;SDS011;12763;55.802;37.404;2023-06-14T03:09:48;17.98;;;7.38;;
24619;SDS011;12763;55.802;37.404;2023-06-14T03:12:15;23.63;;;7.80;;
24619;SDS011;12763;55.802;37.404;2023-06-14T03:14:41;21.55;;;7.43;;
24619;SDS011;12763;55.802;37.404;2023-06-14T03:17:08;19.15;;;7.25;;
24619;SDS011;12763;55.802;37.404;2023-06-14T03:19:38;17.35;;;7.78;;
24619;SDS011;12763;55.802;37.404;2023-06-14T03:22:04;21.33;;;7.40;;
24619;SDS011;12763;55.802;37.404;2023-06-14T03:24:32;22.63;;;8.20;;
24619;SDS011;12763;55.802;37.404;2023-06-14T03:27:02;16.80;;;7.70;;
24619;SDS011;12763;55.802;37.404;2023-06-14T03:29:28;19.77;;;8.77;;
24619;SDS011;12763;55.802;37.404;2023-06-14T03:31:58;18.95;;;7.47;;
24619;SDS011;12763;55.802;37.404;2023-06-14T03:34:33;20.95;;;8.15;;
24619;SDS011;12763;55.802;37.404;2023-06-14T03:37:01;17.90;;;7.88;;
24619;SDS011;12763;55.802;37.404;2023-06-14T03:39:27;20.95;;;8.48;;
24619;SDS011;12763;55.802;37.404;2023-06-14T03:41:54;24.38;;;8.50;;
24619;SDS011;12763;55.802;37.404;2023-06-14T03:44:20;20.08;;;8.27;;
24619;SDS011;12763;55.802;37.404;2023-06-14T03:46:46;24.10;;;8.02;;
24619;SDS011;12763;55.802;37.404;2023-06-14T03:49:13;26.65;;;8.98;;
24619;SDS011;12763;55.802;37.404;2023-06-14T03:51:39;20.75;;;7.70;;
24619;SDS011;12763;55.802;37.404;2023-06-14T03:54:06;20.00;;;8.25;;
24619;SDS011;12763;55.802;37.404;2023-06-14T03:56:32;16.48;;;8.07;;
24619;SDS011;12763;55.802;37.404;2023-06-14T03:58:58;16.50;;;7.80;;
24619;SDS011;12763;55.802;37.404;2023-06-14T04:01:27;23.13;;;8.13;;
24619;SDS011;12763;55.802;37.404;2023-06-14T04:03:57;18.50;;;8.15;;
24619;SDS011;12763;55.802;37.404;2023-06-14T04:06:25;22.33;;;8.15;;
24619;SDS011;12763;55.802;37.404;2023-06-14T04:08:59;17.40;;;8.60;;
24619;SDS011;12763;55.802;37.404;2023-06-14T04:11:29;19.50;;;8.48;;
24619;SDS011;12763;55.802;37.404;2023-06-14T04:13:55;21.10;;;8.48;;
24619;SDS011;12763;55.802;37.404;2023-06-14T04:16:22;16.38;;;8.77;;
24619;SDS011;12763;55.802;37.404;2023-06-14T04:18:48;19.88;;;7.65;;
24619;SDS011;12763;55.802;37.404;2023-06-14T04:21:18;20.35;;;8.75;;
24619;SDS011;12763;55.802;37.404;2023-06-14T04:23:45;22.65;;;7.63;;
24619;SDS011;12763;55.802;37.404;2023-06-14T04:26:13;22.75;;;8.02;;
24619;SDS011;12763;55.802;37.404;2023-06-14T04:28:40;19.13;;;7.60;;
24619;SDS011;12763;55.802;37.404;2023-06-14T04:31:08;22.33;;;7.97;;
24619;SDS011;12763;55.802;37.404;2023-06-14T04:33:37;24.50;;;7.63;;
24619;SDS011;12763;55.802;37.404;2023-06-14T04:36:10;20.88;;;7.75;;
24619;SDS011;12763;55.802;37.404;2023-06-14T04:38:43;18.52;;;8.35;;
24619;SDS011;12763;55.802;37.404;2023-06-14T04:41:12;18.65;;;8.18;;
24619;SDS011;12763;55.802;37.404;2023-06-14T04:43:39;15.98;;;7.50;;
24619;SDS011;12763;55.802;37.404;2023-06-14T04:46:06;15.50;;;7.10;;
24619;SDS011;12763;55.802;37.404;2023-06-14T04:48:37;21.00;;;7.07;;
24619;SDS011;12763;55.802;37.404;2023-06-14T04:51:10;14.45;;;6.10;;
24619;SDS011;12763;55.802;37.404;2023-06-14T04:53:36;14.93;;;6.07;;
24619;SDS011;12763;55.802;37.404;2023-06-14T04:56:03;10.98;;;5.82;;
24619;SDS011;12763;55.802;37.404;2023-06-14T04:58:31;18.05;;;6.10;;
24619;SDS011;12763;55.802;37.404;2023-06-14T05:00:58;13.90;;;5.80;;
24619;SDS011;12763;55.802;37.404;2023-06-14T05:03:25;10.73;;;5.07;;
24619;SDS011;12763;55.802;37.404;2023-06-14T05:05:53;13.75;;;5.43;;
24619;SDS011;12763;55.802;37.404;2023-06-14T05:08:22;11.68;;;4.68;;
24619;SDS011;12763;55.802;37.404;2023-06-14T05:10:50;9.95;;;4.75;;
24619;SDS011;12763;55.802;37.404;2023-06-14T05:13:16;11.63;;;5.18;;
24619;SDS011;12763;55.802;37.404;2023-06-14T05:15:45;10.35;;;4.68;;
24619;SDS011;12763;55.802;37.404;2023-06-14T05:18:11;10.43;;;5.47;;
24619;SDS011;12763;55.802;37.404;2023-06-14T05:20:39;16.77;;;4.45;;
24619;SDS011;12763;55.802;37.404;2023-06-14T05:23:07;10.10;;;5.03;;
24619;SDS011;12763;55.802;37.404;2023-06-14T05:25:34;12.02;;;4.05;;
24619;SDS011;12763;55.802;37.404;2023-06-14T05:28:00;10.43;;;4.53;;
24619;SDS011;12763;55.802;37.404;2023-06-14T05:30:25;15.38;;;4.47;;
24619;SDS011;12763;55.802;37.404;2023-06-14T05:32:51;16.92;;;4.63;;
24619;SDS011;12763;55.802;37.404;2023-06-14T05:35:18;13.25;;;4.53;;
24619;SDS011;12763;55.802;37.404;2023-06-14T05:37:44;6.53;;;3.70;;
24619;SDS011;12763;55.802;37.404;2023-06-14T05:40:10;6.93;;;3.95;;
24619;SDS011;12763;55.802;37.404;2023-06-14T05:42:36;8.55;;;3.95;;
24619;SDS011;12763;55.802;37.404;2023-06-14T05:45:02;15.00;;;4.38;;
24619;SDS011;12763;55.802;37.404;2023-06-14T05:47:29;13.93;;;3.97;;
24619;SDS011;12763;55.802;37.404;2023-06-14T05:49:55;9.05;;;4.68;;
24619;SDS011;12763;55.802;37.404;2023-06-14T05:52:21;7.88;;;4.20;;
24619;SDS011;12763;55.802;37.404;2023-06-14T05:54:47;12.38;;;3.90;;
24619;SDS011;12763;55.802;37.404;2023-06-14T05:57:13;13.77;;;3.63;;
24619;SDS011;12763;55.802;37.404;2023-06-14T05:59:39;15.00;;;3.90;;
24619;SDS011;12763;55.802;37.404;2023-06-14T06:02:05;8.40;;;4.05;;
24619;SDS011;12763;55.802;37.404;2023-06-14T06:04:31;9.43;;;4.18;;
24619;SDS011;12763;55.802;37.404;2023-06-14T06:06:57;9.10;;;3.65;;
24619;SDS011;12763;55.802;37.404;2023-06-14T06:09:23;14.75;;;3.78;;
24619;SDS011;12763;55.802;37.404;2023-06-14T06:11:50;9.68;;;4.30;;
24619;SDS011;12763;55.802;37.404;2023-06-14T06:14:16;4.68;;;3.08;;
24619;SDS011;12763;55.802;37.404;2023-06-14T06:16:42;7.45;;;3.83;;
24619;SDS011;12763;55.802;37.404;2023-06-14T06:19:08;8.82;;;4.03;;
24619;SDS011;12763;55.802;37.404;2023-06-14T06:21:33;8.27;;;3.60;;
24619;SDS011;12763;55.802;37.404;2023-06-14T06:23:59;8.52;;;3.50;;
24619;SDS011;12763;55.802;37.404;2023-06-14T06:26:28;5.32;;;3.72;;
24619;SDS011;12763;55.802;37.404;2023-06-14T06:28:55;7.45;;;4.32;;
24619;SDS011;12763;55.802;37.404;2023-06-14T06:31:22;13.57;;;4.10;;
24619;SDS011;12763;55.802;37.404;2023-06-14T06:33:48;8.88;;;3.65;;
24619;SDS011;12763;55.802;37.404;2023-06-14T06:36:15;15.57;;;3.60;;
24619;SDS011;12763;55.802;37.404;2023-06-14T06:38:41;11.55;;;3.25;;
24619;SDS011;12763;55.802;37.404;2023-06-14T06:41:07;7.22;;;2.83;;
24619;SDS011;12763;55.802;37.404;2023-06-14T06:43:33;9.32;;;3.17;;
24619;SDS011;12763;55.802;37.404;2023-06-14T06:46:01;11.00;;;3.25;;
24619;SDS011;12763;55.802;37.404;2023-06-14T06:48:27;4.95;;;2.72;;
24619;SDS011;12763;55.802;37.404;2023-06-14T06:50:54;5.25;;;2.55;;
24619;SDS011;12763;55.802;37.404;2023-06-14T06:53:20;4.90;;;2.70;;
24619;SDS011;12763;55.802;37.404;2023-06-14T06:55:46;4.97;;;2.92;;
24619;SDS011;12763;55.802;37.404;2023-06-14T06:58:12;5.63;;;2.78;;
24619;SDS011;12763;55.802;37.404;2023-06-14T07:00:40;6.53;;;3.05;;
24619;SDS011;12763;55.802;37.404;2023-06-14T07:03:06;7.78;;;3.17;;
24619;SDS011;12763;55.802;37.404;2023-06-14T07:05:32;10.50;;;2.85;;
24619;SDS011;12763;55.802;37.404;2023-06-14T07:07:58;9.00;;;3.08;;
24619;SDS011;12763;55.802;37.404;2023-06-14T07:10:24;9.20;;;3.38;;
24619;SDS011;12763;55.802;37.404;2023-06-14T07:12:50;8.40;;;3.25;;
24619;SDS011;12763;55.802;37.404;2023-06-14T07:15:16;6.30;;;3.20;;
24619;SDS011;12763;55.802;37.404;2023-06-14T07:17:42;5.25;;;2.92;;
24619;SDS011;12763;55.802;37.404;2023-06-14T07:20:08;8.13;;;3.28;;
24619;SDS011;12763;55.802;37.404;2023-06-14T07:22:41;7.05;;;3.15;;
24619;SDS011;12763;55.802;37.404;2023-06-14T07:25:11;5.72;;;3.55;;
24619;SDS011;12763;55.802;37.404;2023-06-14T07:27:41;5.35;;;3.33;;
24619;SDS011;12763;55.802;37.404;2023-06-14T07:30:08;5.85;;;2.63;;
24619;SDS011;12763;55.802;37.404;2023-06-14T07:32:34;7.32;;;2.83;;
24619;SDS011;12763;55.802;37.404;2023-06-14T07:35:01;3.42;;;2.78;;
24619;SDS011;12763;55.802;37.404;2023-06-14T07:37:29;4.10;;;2.95;;
24619;SDS011;12763;55.802;37.404;2023-06-14T07:39:56;4.80;;;2.65;;
24619;SDS011;12763;55.802;37.404;2023-06-14T07:42:22;5.95;;;2.90;;
24619;SDS011;12763;55.802;37.404;2023-06-14T07:44:48;10.30;;;3.33;;
24619;SDS011;12763;55.802;37.404;2023-06-14T07:47:15;5.20;;;2.95;;
24619;SDS011;12763;55.802;37.404;2023-06-14T07:49:41;6.18;;;3.17;;
24619;SDS011;12763;55.802;37.404;2023-06-14T07:52:07;9.60;;;3.05;;
24619;SDS011;12763;55.802;37.404;2023-06-14T07:54:33;8.05;;;3.28;;
24619;SDS011;12763;55.802;37.404;2023-06-14T07:56:59;4.00;;;2.58;;
24619;SDS011;12763;55.802;37.404;2023-06-14T07:59:26;7.50;;;3.25;;
24619;SDS011;12763;55.802;37.404;2023-06-14T08:01:52;6.57;;;3.58;;
24619;SDS011;12763;55.802;37.404;2023-06-14T08:04:18;5.45;;;2.95;;
24619;SDS011;12763;55.802;37.404;2023-06-14T08:06:44;4.85;;;2.72;;
24619;SDS011;12763;55.802;37.404;2023-06-14T08:09:12;5.82;;;2.80;;
24619;SDS011;12763;55.802;37.404;2023-06-14T08:11:38;4.95;;;3.22;;
24619;SDS011;12763;55.802;37.404;2023-06-14T08:14:04;6.90;;;3.20;;
24619;SDS011;12763;55.802;37.404;2023-06-14T08:16:30;8.43;;;3.70;;
24619;SDS011;12763;55.802;37.404;2023-06-14T08:18:56;9.65;;;3.70;;
24619;SDS011;12763;55.802;37.404;2023-06-14T08:21:22;10.10;;;3.22;;
24619;SDS011;12763;55.802;37.404;2023-06-14T08:23:49;9.90;;;3.47;;
24619;SDS011;12763;55.802;37.404;2023-06-14T08:26:18;7.18;;;3.80;;
24619;SDS011;12763;55.802;37.404;2023-06-14T08:28:45;6.05;;;3.08;;
24619;SDS011;12763;55.802;37.404;2023-06-14T08:31:11;7.32;;;3.42;;
24619;SDS011;12763;55.802;37.404;2023-06-14T08:33:38;10.05;;;3.08;;
24619;SDS011;12763;55.802;37.404;2023-06-14T08:36:08;8.63;;;4.13;;
24619;SDS011;12763;55.802;37.404;2023-06-14T08:38:36;7.63;;;3.25;;
24619;SDS011;12763;55.802;37.404;2023-06-14T08:41:03;5.30;;;3.22;;
24619;SDS011;12763;55.802;37.404;2023-06-14T08:43:31;5.50;;;3.17;;
24619;SDS011;12763;55.802;37.404;2023-06-14T08:45:59;7.28;;;3.15;;
24619;SDS011;12763;55.802;37.404;2023-06-14T08:48:27;8.45;;;3.42;;
24619;SDS011;12763;55.802;37.404;2023-06-14T08:50:56;7.25;;;3.45;;
24619;SDS011;12763;55.802;37.404;2023-06-14T08:53:30;8.63;;;3.50;;
24619;SDS011;12763;55.802;37.404;2023-06-14T08:56:02;8.32;;;3.80;;
24619;SDS011;12763;55.802;37.404;2023-06-14T08:58:30;9.25;;;3.28;;
24619;SDS011;12763;55.802;37.404;2023-06-14T09:01:00;7.25;;;3.30;;
24619;SDS011;12763;55.802;37.404;2023-06-14T09:03:27;5.65;;;3.33;;
24619;SDS011;12763;55.802;37.404;2023-06-14T09:05:56;8.13;;;3.47;;
24619;SDS011;12763;55.802;37.404;2023-06-14T09:08:28;8.07;;;3.60;;
24619;SDS011;12763;55.802;37.404;2023-06-14T09:10:57;4.47;;;3.20;;
24619;SDS011;12763;55.802;37.404;2023-06-14T09:13:23;8.23;;;3.70;;
24619;SDS011;12763;55.802;37.404;2023-06-14T09:15:50;8.35;;;3.30;;
24619;SDS011;12763;55.802;37.404;2023-06-14T09:18:17;7.90;;;2.88;;
24619;SDS011;12763;55.802;37.404;2023-06-14T09:20:46;8.20;;;3.78;;
24619;SDS011;12763;55.802;37.404;2023-06-14T09:23:13;8.77;;;3.30;;
24619;SDS011;12763;55.802;37.404;2023-06-14T09:25:47;7.15;;;3.90;;
24619;SDS011;12763;55.802;37.404;2023-06-14T09:28:13;4.97;;;3.50;;
24619;SDS011;12763;55.802;37.404;2023-06-14T09:30:39;6.85;;;3.00;;
24619;SDS011;12763;55.802;37.404;2023-06-14T09:33:06;9.80;;;3.80;;
24619;SDS011;12763;55.802;37.404;2023-06-14T09:35:32;8.40;;;3.35;;
24619;SDS011;12763;55.802;37.404;2023-06-14T09:37:58;5.18;;;3.35;;
24619;SDS011;12763;55.802;37.404;2023-06-14T09:40:24;10.15;;;3.90;;
24619;SDS011;12763;55.802;37.404;2023-06-14T09:42:50;12.45;;;3.92;;
24619;SDS011;12763;55.802;37.404;2023-06-14T09:45:17;7.00;;;3.10;;
24619;SDS011;12763;55.802;37.404;2023-06-14T09:47:49;4.28;;;3.33;;
24619;SDS011;12763;55.802;37.404;2023-06-14T09:50:16;7.07;;;3.20;;
24619;SDS011;12763;55.802;37.404;2023-06-14T09:52:43;9.50;;;3.40;;
24619;SDS011;12763;55.802;37.404;2023-06-14T09:55:12;6.75;;;3.85;;
24619;SDS011;12763;55.802;37.404;2023-06-14T09:57:41;5.68;;;3.90;;
24619;SDS011;12763;55.802;37.404;2023-06-14T10:00:09;6.85;;;3.58;;
24619;SDS011;12763;55.802;37.404;2023-06-14T10:02:38;5.03;;;3.22;;
24619;SDS011;12763;55.802;37.404;2023-06-14T10:05:08;11.77;;;3.40;;
24619;SDS011;12763;55.802;37.404;2023-06-14T10:10:25;6.07;;;3.53;;
24619;SDS011;12763;55.802;37.404;2023-06-14T10:12:51;8.25;;;3.85;;
24619;SDS011;12763;55.802;37.404;2023-06-14T10:15:24;6.50;;;3.53;;
24619;SDS011;12763;55.802;37.404;2023-06-14T10:17:59;7.88;;;3.15;;
24619;SDS011;12763;55.802;37.404;2023-06-14T10:20:58;8.82;;;3.58;;
24619;SDS011;12763;55.802;37.404;2023-06-14T10:26:00;5.15;;;3.25;;
24619;SDS011;12763;55.802;37.404;2023-06-14T10:28:26;6.43;;;3.58;;
24619;SDS011;12763;55.802;37.404;2023-06-14T10:31:05;9.73;;;3.78;;
24619;SDS011;12763;55.802;37.404;2023-06-14T10:33:32;4.32;;;3.13;;
24619;SDS011;12763;55.802;37.404;2023-06-14T10:39:09;5.30;;;3.30;;
24619;SDS011;12763;55.802;37.404;2023-06-14T10:41:40;5.10;;;3.20;;
24619;SDS011;12763;55.802;37.404;2023-06-14T10:46:39;7.15;;;3.17;;
24619;SDS011;12763;55.802;37.404;2023-06-14T10:49:06;7.07;;;2.90;;
24619;SDS011;12763;55.802;37.404;2023-06-14T10:51:38;5.72;;;3.63;;
24619;SDS011;12763;55.802;37.404;2023-06-14T10:54:12;6.07;;;3.38;;
24619;SDS011;12763;55.802;37.404;2023-06-14T10:56:45;8.05;;;3.47;;
24619;SDS011;12763;55.802;37.404;2023-06-14T10:59:12;7.73;;;3.93;;
24619;SDS011;12763;55.802;37.404;2023-06-14T11:01:41;6.15;;;3.05;;
24619;SDS011;12763;55.802;37.404;2023-06-14T11:04:20;9.82;;;3.22;;
24619;SDS011;12763;55.802;37.404;2023-06-14T11:06:50;5.78;;;2.80;;
24619;SDS011;12763;55.802;37.404;2023-06-14T11:09:22;7.53;;;3.17;;
24619;SDS011;12763;55.802;37.404;2023-06-14T11:11:57;5.35;;;3.15;;
24619;SDS011;12763;55.802;37.404;2023-06-14T11:14:28;8.38;;;3.60;;
24619;SDS011;12763;55.802;37.404;2023-06-14T11:16:56;5.85;;;3.35;;
24619;SDS011;12763;55.802;37.404;2023-06-14T11:19:22;9.20;;;3.80;;
24619;SDS011;12763;55.802;37.404;2023-06-14T11:21:48;6.28;;;3.35;;
24619;SDS011;12763;55.802;37.404;2023-06-14T11:24:14;6.63;;;3.45;;
24619;SDS011;12763;55.802;37.404;2023-06-14T11:26:40;11.75;;;3.28;;
24619;SDS011;12763;55.802;37.404;2023-06-14T11:29:06;3.85;;;2.90;;
24619;SDS011;12763;55.802;37.404;2023-06-14T11:31:32;6.10;;;3.15;;
24619;SDS011;12763;55.802;37.404;2023-06-14T11:33:59;7.43;;;3.47;;
24619;SDS011;12763;55.802;37.404;2023-06-14T11:36:26;5.72;;;3.15;;
24619;SDS011;12763;55.802;37.404;2023-06-14T11:39:02;7.72;;;3.10;;
24619;SDS011;12763;55.802;37.404;2023-06-14T11:41:38;5.18;;;3.10;;
24619;SDS011;12763;55.802;37.404;2023-06-14T11:44:06;7.88;;;3.42;;
24619;SDS011;12763;55.802;37.404;2023-06-14T11:46:33;8.70;;;3.65;;
24619;SDS011;12763;55.802;37.404;2023-06-14T11:48:59;5.78;;;2.97;;
24619;SDS011;12763;55.802;37.404;2023-06-14T11:51:29;7.88;;;3.00;;
24619;SDS011;12763;55.802;37.404;2023-06-14T11:53:59;5.03;;;2.80;;
24619;SDS011;12763;55.802;37.404;2023-06-14T11:56:26;5.43;;;3.17;;
24619;SDS011;12763;55.802;37.404;2023-06-14T11:58:52;5.18;;;3.55;;
24619;SDS011;12763;55.802;37.404;2023-06-14T12:01:22;4.32;;;3.03;;
24619;SDS011;12763;55.802;37.404;2023-06-14T12:03:48;6.72;;;3.80;;
24619;SDS011;12763;55.802;37.404;2023-06-14T12:06:16;5.38;;;2.90;;
24619;SDS011;12763;55.802;37.404;2023-06-14T12:11:16;6.75;;;2.90;;
24619;SDS011;12763;55.802;37.404;2023-06-14T12:13:42;6.07;;;3.03;;
24619;SDS011;12763;55.802;37.404;2023-06-14T12:16:09;5.03;;;2.92;;
24619;SDS011;12763;55.802;37.404;2023-06-14T12:18:37;4.88;;;3.00;;
24619;SDS011;12763;55.802;37.404;2023-06-14T12:21:05;5.22;;;3.17;;
24619;SDS011;12763;55.802;37.404;2023-06-14T12:24:05;6.28;;;2.80;;
24619;SDS011;12763;55.802;37.404;2023-06-14T12:26:24;8.45;;;3.00;;
24619;SDS011;12763;55.802;37.404;2023-06-14T12:28:51;3.95;;;2.67;;
24619;SDS011;12763;55.802;37.404;2023-06-14T12:31:17;5.70;;;2.92;;
24619;SDS011;12763;55.802;37.404;2023-06-14T12:33:45;7.28;;;3.33;;
24619;SDS011;12763;55.802;37.404;2023-06-14T12:36:14;11.57;;;3.72;;
24619;SDS011;12763;55.802;37.404;2023-06-14T12:38:40;12.40;;;2.85;;
24619;SDS011;12763;55.802;37.404;2023-06-14T12:41:07;6.38;;;2.78;;
24619;SDS011;12763;55.802;37.404;2023-06-14T12:43:33;8.40;;;2.92;;
24619;SDS011;12763;55.802;37.404;2023-06-14T12:45:59;7.05;;;3.03;;
24619;SDS011;12763;55.802;37.404;2023-06-14T12:48:26;10.65;;;3.17;;
24619;SDS011;12763;55.802;37.404;2023-06-14T12:50:57;5.10;;;2.75;;
24619;SDS011;12763;55.802;37.404;2023-06-14T12:53:23;7.60;;;2.63;;
24619;SDS011;12763;55.802;37.404;2023-06-14T12:55:49;7.03;;;2.95;;
24619;SDS011;12763;55.802;37.404;2023-06-14T12:58:16;7.18;;;2.92;;
24619;SDS011;12763;55.802;37.404;2023-06-14T13:00:45;3.28;;;2.30;;
24619;SDS011;12763;55.802;37.404;2023-06-14T13:03:12;5.75;;;2.70;;
24619;SDS011;12763;55.802;37.404;2023-06-14T13:05:37;9.30;;;3.17;;
24619;SDS011;12763;55.802;37.404;2023-06-14T13:08:06;7.10;;;2.90;;
24619;SDS011;12763;55.802;37.404;2023-06-14T13:10:33;5.65;;;3.15;;
24619;SDS011;12763;55.802;37.404;2023-06-14T13:13:00;5.43;;;2.50;;
24619;SDS011;12763;55.802;37.404;2023-06-14T13:15:26;5.57;;;2.80;;
24619;SDS011;12763;55.802;37.404;2023-06-14T13:17:53;7.03;;;2.95;;
24619;SDS011;12763;55.802;37.404;2023-06-14T13:20:19;7.03;;;3.08;;
24619;SDS011;12763;55.802;37.404;2023-06-14T13:22:45;6.13;;;2.70;;
24619;SDS011;12763;55.802;37.404;2023-06-14T13:25:11;6.47;;;2.95;;
24619;SDS011;12763;55.802;37.404;2023-06-14T13:27:37;4.97;;;2.95;;
24619;SDS011;12763;55.802;37.404;2023-06-14T13:30:03;4.10;;;2.85;;
24619;SDS011;12763;55.802;37.404;2023-06-14T13:32:32;4.55;;;2.92;;
24619;SDS011;12763;55.802;37.404;2023-06-14T13:34:57;7.60;;;2.75;;
24619;SDS011;12763;55.802;37.404;2023-06-14T13:37:23;4.10;;;2.72;;
24619;SDS011;12763;55.802;37.404;2023-06-14T13:39:49;7.03;;;2.75;;
24619;SDS011;12763;55.802;37.404;2023-06-14T13:42:15;3.55;;;2.55;;
24619;SDS011;12763;55.802;37.404;2023-06-14T13:44:41;3.15;;;2.40;;
24619;SDS011;12763;55.802;37.404;2023-06-14T13:47:07;5.97;;;2.40;;
24619;SDS011;12763;55.802;37.404;2023-06-14T13:49:33;8.57;;;2.67;;
24619;SDS011;12763;55.802;37.404;2023-06-14T13:52:01;6.43;;;2.75;;
24619;SDS011;12763;55.802;37.404;2023-06-14T13:54:27;4.25;;;2.58;;
24619;SDS011;12763;55.802;37.404;2023-06-14T13:56:53;6.40;;;3.20;;
24619;SDS011;12763;55.802;37.404;2023-06-14T13:59:20;4.05;;;3.10;;
24619;SDS011;12763;55.802;37.404;2023-06-14T14:01:46;3.45;;;2.80;;
24619;SDS011;12763;55.802;37.404;2023-06-14T14:04:12;10.23;;;3.05;;
24619;SDS011;12763;55.802;37.404;2023-06-14T14:06:38;5.13;;;3.10;;
24619;SDS011;12763;55.802;37.404;2023-06-14T14:09:04;4.55;;;2.65;;
24619;SDS011;12763;55.802;37.404;2023-06-14T14:11:30;7.93;;;3.38;;
24619;SDS011;12763;55.802;37.404;2023-06-14T14:13:58;5.78;;;3.35;;
24619;SDS011;12763;55.802;37.404;2023-06-14T14:16:25;6.45;;;3.35;;
24619;SDS011;12763;55.802;37.404;2023-06-14T14:18:51;6.07;;;2.97;;
24619;SDS011;12763;55.802;37.404;2023-06-14T14:21:17;7.32;;;2.83;;
24619;SDS011;12763;55.802;37.404;2023-06-14T14:23:43;7.30;;;3.25;;
24619;SDS011;12763;55.802;37.404;2023-06-14T14:26:11;4.38;;;3.15;;
24619;SDS011;12763;55.802;37.404;2023-06-14T14:28:37;6.15;;;3.03;;
24619;SDS011;12763;55.802;37.404;2023-06-14T14:31:02;8.38;;;3.15;;
24619;SDS011;12763;55.802;37.404;2023-06-14T14:33:28;5.72;;;2.75;;
24619;SDS011;12763;55.802;37.404;2023-06-14T14:35:54;3.28;;;2.80;;
24619;SDS011;12763;55.802;37.404;2023-06-14T14:38:20;3.40;;;2.67;;
24619;SDS011;12763;55.802;37.404;2023-06-14T14:40:47;3.00;;;2.67;;
24619;SDS011;12763;55.802;37.404;2023-06-14T14:43:13;2.78;;;2.33;;
24619;SDS011;12763;55.802;37.404;2023-06-14T14:45:40;4.45;;;3.10;;
24619;SDS011;12763;55.802;37.404;2023-06-14T14:48:06;3.08;;;2.67;;